Anchorage, AK (99516)

3:37 AM AKDT on August 20, 2014 (GMT -0800)
AKDOT Hillside Road @ Upper Huffman Road | Change Station
CLOSE
Current Station
Personal Weather Station
Location: Anchorage, AK
Elevation: 1040 ft
Nearby Weather Stations

Elev 1040 ft 61.11 °N, 149.74 °W | Updated 54 minutes ago

Mostly Cloudy
Mostly Cloudy
53 °F
Feels Like 53 °F
N
3
Wind Variable Wind from ESE
Gusts 6.0 mph

Today
High -- | Low -- °F
--% Chance of Precip.
Yesterday
High -- | Low -- °F
Precip. -- in
6:21 AM 9:41 PM
Waning Crescent, 22% visible
Pressure 30.02 in
Visibility 10.0 miles
Clouds Few 6500 ft
Scattered Clouds 9000 ft
Mostly Cloudy 20000 ft
Dew Point 48 °F
Humidity 85%
Rainfall -999.00 in
Snow Depth 1 in
UV 0 out of 12
Pollen Not available.
Air Quality Not available.
Flu Activity Not available.
METAR PAMR 201053Z 18003KT 10SM FEW065 SCT090 BKN200 14/11 A3002 RMK AO2 SLP165 T01440106 $

More Conditions Fewer Conditions

Pressure 30.02 in
Visibility 10.0 miles
Clouds Few 6500 ft
Scattered Clouds 9000 ft
Mostly Cloudy 20000 ft
Dew Point 48 °F
Humidity 85%
Rainfall -999.00 in
Snow Depth 1 in
UV 0 out of 12
Pollen Not available.
Air Quality Not available.
Flu Activity Not available.
METAR PAMR 201053Z 18003KT 10SM FEW065 SCT090 BKN200 14/11 A3002 RMK AO2 SLP165 T01440106 $

More Conditions Fewer Conditions

10-Day Weather Forecast

Almanac

Astronomy

Aug. 20, 2014 Rise Set
Actual Time 6:21 AM AKDT 9:41 PM AKDT
Civil Twilight 5:29 AM AKDT 10:32 PM AKDT
Nautical Twilight 4:14 AM AKDT 11:46 PM AKDT
Astronomical Twilight 2:34 AM AKDT 1:29 AM AKDT
Moon 1:36 AM AKDT 7:04 PM AKDT
Length of Visible Light 17h 03m
Length of Day
15h 20m
Tomorrow will be 5m 35s shorter.
Waning Crescent, 22% of the Moon is Illuminated
Today
Waning Crescent
Aug 25
New
Sep 2
First Quarter
Sep 8
Full
Sep 15
Last Quarter

Today's Extremes

State Highs State Lows

Community

WunderPhotos

Upload Photos

1,745,611 photos uploaded!

Nearby

Snow Depth

Station Depth Elevation
Indian Pass 1 in 2300 ft
Point Mackenzie 1 in 200 ft
Turnagain Pass 2 in 1880 ft
Summit Creek 0 in 1400 ft
Grandview 0 in 1100 ft

Earthquake Activity

City Distance Mag. Time & Date
No recent earthquake activity has been reported nearby.
Minimum magnitude displayed is 2.5.

Coastal Water Temperatures

Place Temperature
No Stations Reporting

Nearby Weather Stations